Time;durP1;ratioP1;P1;durP2;ratioP2;P2;SDS_P1;SDS_P2;PMS_P1;PMS_P2;Temp;Humidity;BMP_temperature;BMP_pressure;BME280_temperature;BME280_humidity;BME280_pressure;Samples;Min_cycle;Max_cycle;Signal;HPM_P1;HPM_P2
2022/12/06 00:02:18;;;;;;;24.37;13.63;;;3.10;99.90;;;;;;5088435;28;20234;-74
2022/12/06 00:04:46;;;;;;;21.93;13.10;;;3.10;99.90;;;;;;5088739;28;20209;-72
2022/12/06 00:07:13;;;;;;;23.47;13.10;;;3.00;99.90;;;;;;5088522;28;20294;-72
2022/12/06 00:09:40;;;;;;;24.33;13.47;;;3.00;99.90;;;;;;5088438;28;20286;-72
2022/12/06 00:12:08;;;;;;;22.50;13.37;;;3.00;99.90;;;;;;5088556;28;20322;-71
2022/12/06 00:14:35;;;;;;;21.37;13.53;;;3.00;99.90;;;;;;5088191;28;20297;-71
2022/12/06 00:17:02;;;;;;;19.17;12.50;;;3.00;99.90;;;;;;5088052;28;20230;-71
2022/12/06 00:19:29;;;;;;;17.70;10.97;;;3.00;99.90;;;;;;5088220;28;20238;-71
2022/12/06 00:21:56;;;;;;;15.57;11.27;;;3.00;99.90;;;;;;5087830;28;20214;-71
2022/12/06 00:24:23;;;;;;;16.77;11.87;;;3.00;99.90;;;;;;5088241;28;20207;-72
2022/12/06 00:26:51;;;;;;;16.17;11.53;;;3.00;99.90;;;;;;5087964;28;20930;-72
2022/12/06 00:29:21;;;;;;;17.80;12.70;;;2.90;99.90;;;;;;5088356;28;20230;-72
2022/12/06 00:31:49;;;;;;;16.67;12.10;;;2.90;99.90;;;;;;5087943;28;20223;-72
2022/12/06 00:34:16;;;;;;;16.57;11.27;;;2.90;99.90;;;;;;5088057;28;20301;-72
2022/12/06 00:36:44;;;;;;;14.60;11.70;;;2.90;99.90;;;;;;5088315;28;20607;-71
2022/12/06 00:39:13;;;;;;;17.73;12.93;;;2.90;99.90;;;;;;5087533;28;20290;-70
2022/12/06 00:41:40;;;;;;;16.90;12.27;;;2.90;99.90;;;;;;5087784;28;20305;-71
2022/12/06 00:44:07;;;;;;;14.23;11.47;;;2.90;99.90;;;;;;5087531;28;20690;-71
2022/12/06 00:46:37;;;;;;;15.87;11.40;;;2.90;99.90;;;;;;5087825;28;20762;-71
2022/12/06 00:49:06;;;;;;;14.57;10.67;;;2.90;99.90;;;;;;5087017;28;20264;-71
2022/12/06 00:51:34;;;;;;;14.43;11.17;;;2.90;99.90;;;;;;5087846;28;20348;-71
2022/12/06 00:54:01;;;;;;;16.70;11.80;;;2.90;99.90;;;;;;5087379;28;20207;-72
2022/12/06 00:56:28;;;;;;;16.20;11.77;;;2.90;99.90;;;;;;5087558;28;20298;-72
2022/12/06 00:58:55;;;;;;;15.93;12.00;;;2.90;99.90;;;;;;5087802;28;20293;-71
2022/12/06 01:01:24;;;;;;;16.27;12.37;;;2.90;99.90;;;;;;5087169;28;20820;-71
2022/12/06 01:03:54;;;;;;;14.87;11.17;;;2.80;99.90;;;;;;5087310;28;20191;-71
2022/12/06 01:06:24;;;;;;;13.50;11.07;;;2.90;99.90;;;;;;5087501;28;20234;-71
2022/12/06 01:08:53;;;;;;;15.43;11.33;;;2.90;99.90;;;;;;5087201;28;20191;-71
2022/12/06 01:11:21;;;;;;;13.73;11.67;;;2.90;99.90;;;;;;5087557;28;20216;-71
2022/12/06 01:13:48;;;;;;;15.03;11.13;;;2.90;99.90;;;;;;5087568;28;20203;-71
2022/12/06 01:16:17;;;;;;;14.73;11.90;;;2.90;99.90;;;;;;5087366;28;20290;-71
2022/12/06 01:18:45;;;;;;;15.50;11.53;;;2.90;99.90;;;;;;5087207;28;20718;-72
2022/12/06 01:21:15;;;;;;;14.40;11.07;;;2.90;99.90;;;;;;5087192;28;20294;-71
2022/12/06 01:23:42;;;;;;;11.80;9.93;;;2.90;99.90;;;;;;5087149;28;20665;-71
2022/12/06 01:26:16;;;;;;;11.80;9.97;;;2.90;99.90;;;;;;5087173;28;20273;-71
2022/12/06 01:28:43;;;;;;;12.07;9.93;;;2.80;99.90;;;;;;5087501;28;20290;-71
2022/12/06 01:31:10;;;;;;;12.83;10.00;;;2.80;99.90;;;;;;5086725;28;20286;-71
2022/12/06 01:33:37;;;;;;;13.37;9.63;;;2.80;99.90;;;;;;5087256;28;20220;-72
2022/12/06 01:36:04;;;;;;;11.83;9.80;;;2.80;99.90;;;;;;5087255;28;20301;-72
2022/12/06 01:38:32;;;;;;;11.90;9.70;;;2.80;99.90;;;;;;5087196;28;20694;-71
2022/12/06 01:40:59;;;;;;;13.90;10.13;;;2.80;99.90;;;;;;5086916;28;20284;-71
2022/12/06 01:43:35;;;;;;;11.97;9.63;;;2.80;99.90;;;;;;5087235;28;20246;-71
2022/12/06 01:46:07;;;;;;;11.77;9.67;;;2.90;99.90;;;;;;5086965;28;20287;-71
2022/12/06 01:48:34;;;;;;;11.37;9.73;;;2.90;99.90;;;;;;5080641;28;20241;-71
2022/12/06 01:51:03;;;;;;;13.00;10.27;;;2.90;99.90;;;;;;5073375;28;20247;-71
2022/12/06 01:53:32;;;;;;;11.47;10.17;;;2.90;99.90;;;;;;5066907;28;20284;-71
2022/12/06 01:56:00;;;;;;;13.40;10.83;;;2.90;99.90;;;;;;5066470;28;20713;-71
2022/12/06 01:58:32;;;;;;;17.43;11.07;;;2.80;99.90;;;;;;5066984;28;20218;-71
2022/12/06 02:00:58;;;;;;;17.97;10.90;;;2.80;99.90;;;;;;5066897;28;20219;-71
2022/12/06 02:03:28;;;;;;;12.33;10.73;;;2.80;99.90;;;;;;5086438;28;20324;-71
2022/12/06 02:05:56;;;;;;;16.77;12.30;;;2.80;99.90;;;;;;5090693;28;20245;-72
2022/12/06 02:08:24;;;;;;;16.40;11.53;;;2.80;99.90;;;;;;5091142;28;20211;-72
2022/12/06 02:10:53;;;;;;;14.47;11.40;;;2.80;99.90;;;;;;5090160;28;20734;-72
2022/12/06 02:13:21;;;;;;;13.17;10.67;;;2.80;99.90;;;;;;5090772;28;20322;-72
2022/12/06 02:15:57;;;;;;;14.13;10.90;;;2.80;99.90;;;;;;5090513;28;20245;-72
2022/12/06 02:18:33;;;;;;;17.43;11.60;;;2.70;99.90;;;;;;5090486;28;20281;-72
2022/12/06 02:21:11;;;;;;;14.37;11.73;;;2.70;99.90;;;;;;5090297;28;20194;-72
2022/12/06 02:24:17;;;;;;;15.73;11.43;;;2.70;99.90;;;;;;5091000;28;20310;-72
2022/12/06 02:26:49;;;;;;;14.77;11.97;;;2.70;99.90;;;;;;5080061;28;20262;-73
2022/12/06 02:30:06;;;;;;;15.63;11.57;;;2.70;99.90;;;;;;5090423;28;20625;-73
2022/12/06 02:32:40;;;;;;;14.83;11.83;;;2.70;99.90;;;;;;5090436;28;20215;-73
2022/12/06 02:35:14;;;;;;;16.67;11.90;;;2.70;99.90;;;;;;5070020;28;20287;-72
2022/12/06 02:37:47;;;;;;;19.37;12.43;;;2.70;99.90;;;;;;5069855;28;20718;-73
2022/12/06 02:40:19;;;;;;;16.30;11.97;;;2.70;99.90;;;;;;5071827;28;20203;-73
2022/12/06 02:42:54;;;;;;;19.47;11.80;;;2.70;99.90;;;;;;5090528;28;20209;-73
2022/12/06 02:45:26;;;;;;;14.37;11.77;;;2.70;99.90;;;;;;5090532;28;20459;-72
2022/12/06 02:47:56;;;;;;;16.97;12.10;;;2.70;99.90;;;;;;5088993;28;20286;-73
2022/12/06 02:50:28;;;;;;;14.73;11.93;;;2.70;99.90;;;;;;5090648;28;20234;-73
2022/12/06 02:52:59;;;;;;;10.60;9.50;;;2.70;99.90;;;;;;5090257;28;20305;-73
2022/12/06 02:55:27;;;;;;;13.33;10.17;;;2.70;99.90;;;;;;5090238;28;20195;-73
2022/12/06 02:57:56;;;;;;;11.27;8.97;;;2.70;99.90;;;;;;5090078;28;20739;-72
2022/12/06 03:00:36;;;;;;;9.90;8.40;;;2.70;99.90;;;;;;5090156;28;20227;-71
2022/12/06 03:03:21;;;;;;;8.83;7.83;;;2.60;99.90;;;;;;5089686;28;20330;-71
2022/12/06 03:06:14;;;;;;;10.67;8.23;;;2.60;99.90;;;;;;5089943;28;20281;-73
2022/12/06 03:08:50;;;;;;;8.50;7.60;;;2.60;99.90;;;;;;5089729;28;20262;-73
2022/12/06 03:11:18;;;;;;;8.97;7.17;;;2.60;99.90;;;;;;5089412;28;20205;-73
2022/12/06 03:13:54;;;;;;;8.40;7.60;;;2.60;99.90;;;;;;5089061;28;20227;-73
2022/12/06 03:16:26;;;;;;;9.20;7.37;;;2.60;99.90;;;;;;5089623;28;20190;-71
2022/12/06 03:18:59;;;;;;;8.07;7.27;;;2.60;99.90;;;;;;5089312;28;20733;-71
2022/12/06 03:21:32;;;;;;;8.57;7.70;;;2.60;99.90;;;;;;5089432;28;20698;-71
2022/12/06 03:23:59;;;;;;;9.03;7.47;;;2.60;99.90;;;;;;5089001;28;20274;-71
2022/12/06 03:26:30;;;;;;;8.17;7.33;;;2.60;99.90;;;;;;5089433;28;20309;-72
2022/12/06 03:28:59;;;;;;;8.53;7.30;;;2.60;99.90;;;;;;5089052;28;20294;-73
2022/12/06 03:31:30;;;;;;;8.93;7.10;;;2.60;99.90;;;;;;5071763;28;20306;-72
2022/12/06 03:34:02;;;;;;;8.10;7.30;;;2.50;99.90;;;;;;5066550;28;20238;-72
2022/12/06 03:36:31;;;;;;;8.50;7.60;;;2.50;99.90;;;;;;5068401;28;20249;-72
2022/12/06 03:39:01;;;;;;;8.20;7.40;;;2.60;99.90;;;;;;5086206;28;20282;-72
2022/12/06 03:41:32;;;;;;;7.77;7.00;;;2.50;99.90;;;;;;5087053;28;20301;-72
2022/12/06 03:44:00;;;;;;;9.27;7.73;;;2.60;99.90;;;;;;5087420;28;20616;-72
2022/12/06 03:46:29;;;;;;;7.77;7.07;;;2.60;99.90;;;;;;5086731;28;20210;-73
2022/12/06 03:49:01;;;;;;;9.27;7.93;;;2.60;99.90;;;;;;5080759;28;20294;-72
2022/12/06 03:51:31;;;;;;;10.30;8.37;;;2.60;99.90;;;;;;5087354;28;20234;-73
2022/12/06 03:54:00;;;;;;;8.70;7.27;;;2.50;99.90;;;;;;5086286;28;20325;-73
2022/12/06 03:56:27;;;;;;;9.30;7.43;;;2.50;99.90;;;;;;5086703;28;20210;-72
2022/12/06 03:58:54;;;;;;;9.03;7.93;;;2.50;99.90;;;;;;5085637;28;20199;-73
2022/12/06 04:01:21;;;;;;;8.60;7.70;;;2.50;99.90;;;;;;5084651;28;20215;-73
2022/12/06 04:03:48;;;;;;;8.37;7.37;;;2.50;99.90;;;;;;5076950;28;20258;-73
2022/12/06 04:06:16;;;;;;;7.83;7.03;;;2.50;99.90;;;;;;5067394;28;20239;-73
2022/12/06 04:08:43;;;;;;;9.90;7.03;;;2.50;99.90;;;;;;5067242;28;20286;-73
2022/12/06 04:11:10;;;;;;;8.13;7.27;;;2.50;99.90;;;;;;5067980;28;20229;-73
2022/12/06 04:13:37;;;;;;;8.10;6.93;;;2.40;99.90;;;;;;5067952;28;20325;-73
2022/12/06 04:18:09;;;;;;;7.20;6.50;;;2.50;99.90;;;;;;5068008;28;20222;-73
2022/12/06 04:18:51;;;;;;;8.43;7.00;;;2.40;99.90;;;;;;5067770;28;20588;-73
2022/12/06 04:24:05;;;;;;;6.97;6.30;;;2.50;99.90;;;;;;5087132;28;20198;-73
2022/12/06 04:26:31;;;;;;;6.83;6.20;;;2.50;99.90;;;;;;5087967;28;20254;-73
2022/12/06 04:39:57;;;;;;;6.30;5.70;;;2.50;99.90;;;;;;5087768;28;20216;-73
2022/12/06 04:45:11;;;;;;;5.90;5.40;;;2.50;99.90;;;;;;5087921;28;20297;-73
2022/12/06 04:47:38;;;;;;;5.67;5.07;;;2.50;99.90;;;;;;5087894;28;20297;-73
2022/12/06 04:50:06;;;;;;;5.97;5.40;;;2.50;99.90;;;;;;5087962;28;20218;-73
2022/12/06 04:52:34;;;;;;;5.60;5.10;;;2.50;99.90;;;;;;5088017;28;20579;-73
2022/12/06 04:55:01;;;;;;;6.73;6.10;;;2.50;99.90;;;;;;5087479;28;20279;-73
2022/12/06 04:57:28;;;;;;;6.00;5.40;;;2.50;99.90;;;;;;5087957;28;20202;-73
2022/12/06 04:59:55;;;;;;;6.20;5.67;;;2.50;99.90;;;;;;5087209;28;20317;-73
2022/12/06 05:02:22;;;;;;;6.40;5.30;;;2.60;99.90;;;;;;5087307;28;20322;-73
2022/12/06 05:04:49;;;;;;;5.63;5.07;;;2.60;99.90;;;;;;5087740;28;20230;-73
2022/12/06 05:07:16;;;;;;;5.83;5.33;;;2.50;99.90;;;;;;5087481;28;20337;-73
2022/12/06 05:09:44;;;;;;;6.77;5.80;;;2.40;99.90;;;;;;5087392;28;20294;-73
2022/12/06 05:12:11;;;;;;;6.80;6.10;;;2.40;99.90;;;;;;5087469;28;21289;-73
2022/12/06 05:14:38;;;;;;;6.40;5.80;;;2.40;99.90;;;;;;5087418;28;20667;-73
2022/12/06 05:17:05;;;;;;;5.77;5.27;;;2.40;99.90;;;;;;5087450;28;20207;-73
2022/12/06 05:19:32;;;;;;;6.20;5.40;;;2.50;99.90;;;;;;5087627;28;20283;-73
2022/12/06 05:21:59;;;;;;;5.70;5.20;;;2.50;99.90;;;;;;5087264;28;20259;-73
2022/12/06 05:24:25;;;;;;;7.50;5.63;;;2.50;99.90;;;;;;5087096;28;20215;-73
2022/12/06 05:26:54;;;;;;;5.73;5.23;;;2.50;99.90;;;;;;5087793;28;20306;-73
2022/12/06 05:29:20;;;;;;;6.23;5.67;;;2.40;99.90;;;;;;5087319;28;20297;-73
2022/12/06 05:31:47;;;;;;;6.27;5.67;;;2.50;99.90;;;;;;5087630;28;20297;-73
2022/12/06 05:34:14;;;;;;;7.53;6.83;;;2.50;99.90;;;;;;5086699;28;20870;-73
2022/12/06 05:36:44;;;;;;;6.80;6.17;;;2.50;99.90;;;;;;5090556;28;20297;-73
2022/12/06 05:39:11;;;;;;;7.30;6.60;;;2.40;99.90;;;;;;5091344;28;20244;-73
2022/12/06 05:41:37;;;;;;;6.47;5.87;;;2.40;99.90;;;;;;5091417;28;20234;-73
2022/12/06 05:44:06;;;;;;;6.30;5.77;;;2.40;99.90;;;;;;5091422;28;20637;-73
2022/12/06 05:46:33;;;;;;;6.10;5.47;;;2.40;99.90;;;;;;5091296;28;20206;-73
2022/12/06 05:49:00;;;;;;;7.13;5.97;;;2.40;99.90;;;;;;5071830;28;20245;-73
2022/12/06 05:51:27;;;;;;;6.67;5.80;;;2.40;99.90;;;;;;5088504;28;20235;-73
2022/12/06 05:53:53;;;;;;;6.03;5.43;;;2.50;99.90;;;;;;5090928;28;20262;-73
2022/12/06 05:56:20;;;;;;;5.80;5.30;;;2.40;99.90;;;;;;5091182;28;20246;-73
2022/12/06 05:58:47;;;;;;;6.30;5.70;;;2.50;99.90;;;;;;5091321;28;20791;-73
2022/12/06 06:01:15;;;;;;;6.23;5.60;;;2.50;99.90;;;;;;5085212;28;20235;-73
2022/12/06 06:03:42;;;;;;;6.43;5.83;;;2.50;99.90;;;;;;5082304;28;20197;-73
2022/12/06 06:06:09;;;;;;;6.30;5.77;;;2.50;99.90;;;;;;5090946;28;20205;-73
2022/12/06 06:08:36;;;;;;;6.43;5.83;;;2.50;99.90;;;;;;5090622;28;20203;-73
2022/12/06 06:11:03;;;;;;;6.50;5.57;;;2.50;99.90;;;;;;5090624;28;20213;-73
2022/12/06 06:13:30;;;;;;;6.23;5.63;;;2.50;99.90;;;;;;5090540;28;20944;-73
2022/12/06 06:15:57;;;;;;;6.47;5.87;;;2.50;99.90;;;;;;5090448;28;20242;-73
2022/12/06 06:18:25;;;;;;;7.10;6.40;;;2.50;99.90;;;;;;5090682;28;20296;-73
2022/12/06 06:20:55;;;;;;;6.60;6.10;;;2.50;99.90;;;;;;5090633;28;20250;-73
2022/12/06 06:23:23;;;;;;;5.70;5.20;;;2.50;99.90;;;;;;5090713;28;20215;-73
2022/12/06 06:25:50;;;;;;;5.43;4.93;;;2.50;99.90;;;;;;5090289;28;20735;-73
2022/12/06 06:28:18;;;;;;;5.87;5.37;;;2.50;99.90;;;;;;5090648;28;20208;-73
2022/12/06 06:30:45;;;;;;;6.03;5.53;;;2.50;99.90;;;;;;5090702;28;20241;-73
2022/12/06 06:33:13;;;;;;;5.90;5.40;;;2.50;99.90;;;;;;5090421;28;20633;-73
2022/12/06 06:35:42;;;;;;;5.27;4.87;;;2.40;99.90;;;;;;5090919;28;20282;-73
2022/12/06 06:38:08;;;;;;;5.90;5.40;;;2.50;99.90;;;;;;5090572;28;20242;-73
2022/12/06 06:40:36;;;;;;;5.60;5.10;;;2.50;99.90;;;;;;5090135;28;20298;-73
2022/12/06 06:43:16;;;;;;;5.20;4.80;;;2.50;99.90;;;;;;5090329;28;20257;-73
2022/12/06 06:45:44;;;;;;;5.47;4.97;;;2.50;99.90;;;;;;5090710;28;20210;-73
2022/12/06 06:48:11;;;;;;;5.63;5.07;;;2.50;99.90;;;;;;5088663;28;20203;-73
2022/12/06 06:50:38;;;;;;;5.07;4.67;;;2.40;99.90;;;;;;5079682;28;20581;-73
2022/12/06 06:53:07;;;;;;;6.17;5.57;;;2.40;99.90;;;;;;5088784;28;20245;-73
2022/12/06 06:55:34;;;;;;;5.73;5.23;;;2.40;99.90;;;;;;5089870;28;20203;-73
2022/12/06 06:58:01;;;;;;;5.57;5.07;;;2.40;99.90;;;;;;5090187;28;20214;-73
2022/12/06 07:00:28;;;;;;;5.60;5.10;;;2.50;99.90;;;;;;5089878;28;20223;-73
2022/12/06 07:02:55;;;;;;;5.67;5.17;;;2.40;99.90;;;;;;5089501;28;20262;-73
2022/12/06 07:05:22;;;;;;;5.00;4.60;;;2.40;99.90;;;;;;5090041;28;20206;-72
2022/12/06 07:07:49;;;;;;;6.13;5.00;;;2.50;99.90;;;;;;5089978;28;20207;-73
2022/12/06 07:10:18;;;;;;;5.37;4.87;;;2.50;99.90;;;;;;5089046;28;20238;-73
2022/12/06 07:12:45;;;;;;;5.73;5.23;;;2.40;99.90;;;;;;5089763;28;20198;-73
2022/12/06 07:15:12;;;;;;;5.87;5.00;;;2.50;99.90;;;;;;5088973;28;20321;-73
2022/12/06 07:17:39;;;;;;;5.30;4.90;;;2.40;99.90;;;;;;5089583;28;20222;-72
2022/12/06 07:20:07;;;;;;;5.80;5.30;;;2.40;99.90;;;;;;5089177;28;20211;-73
2022/12/06 07:22:34;;;;;;;5.20;4.70;;;2.50;99.90;;;;;;5089492;28;20289;-73
2022/12/06 07:25:01;;;;;;;6.13;5.63;;;2.50;99.90;;;;;;5089186;28;20293;-71
2022/12/06 07:27:29;;;;;;;6.70;5.10;;;2.50;99.90;;;;;;5069252;28;20304;-72
2022/12/06 07:29:56;;;;;;;5.53;5.13;;;2.60;99.90;;;;;;5078469;28;21097;-72
2022/12/06 07:32:23;;;;;;;5.70;5.20;;;2.60;99.90;;;;;;5088857;28;20234;-72
2022/12/06 07:34:50;;;;;;;6.33;5.63;;;2.50;99.90;;;;;;5089300;28;20231;-72
2022/12/06 07:37:19;;;;;;;6.07;5.47;;;2.50;99.90;;;;;;5088709;28;20210;-72
2022/12/06 07:39:46;;;;;;;6.13;5.03;;;2.50;99.90;;;;;;5088533;28;20242;-72
2022/12/06 07:45:01;;;;;;;4.73;4.33;;;2.50;99.90;;;;;;5088772;28;20552;-73
2022/12/06 07:47:32;;;;;;;5.20;4.70;;;2.50;99.90;;;;;;5086294;28;20209;-72
2022/12/06 07:49:59;;;;;;;6.97;5.00;;;2.50;99.90;;;;;;5088924;28;20256;-73
2022/12/06 07:52:29;;;;;;;5.33;4.83;;;2.60;99.90;;;;;;5089000;28;20264;-72
2022/12/06 07:54:56;;;;;;;5.27;4.77;;;2.60;99.90;;;;;;5088188;28;20310;-72
2022/12/06 07:57:23;;;;;;;4.90;4.50;;;2.60;99.90;;;;;;5088623;28;20303;-72
2022/12/06 07:59:50;;;;;;;5.33;4.53;;;2.70;99.90;;;;;;5088905;28;20228;-73
2022/12/06 08:02:20;;;;;;;4.40;4.07;;;2.70;99.90;;;;;;5088108;28;20663;-73
2022/12/06 08:04:47;;;;;;;4.70;4.30;;;2.70;99.90;;;;;;5088595;28;20297;-72
2022/12/06 08:07:14;;;;;;;4.70;4.37;;;2.60;99.90;;;;;;5088623;28;20299;-72
2022/12/06 08:09:41;;;;;;;5.03;4.50;;;2.60;99.90;;;;;;5088264;28;20210;-72
2022/12/06 08:12:09;;;;;;;4.50;4.10;;;2.60;99.90;;;;;;5071592;28;20469;-72
2022/12/06 08:14:36;;;;;;;5.10;4.60;;;2.60;99.90;;;;;;5068384;28;20323;-72
2022/12/06 08:17:05;;;;;;;4.50;4.10;;;2.60;99.90;;;;;;5068173;28;20214;-72
2022/12/06 08:19:33;;;;;;;4.30;4.00;;;2.50;99.90;;;;;;5069450;28;20294;-73
2022/12/06 08:22:00;;;;;;;4.60;4.23;;;2.50;99.90;;;;;;5088575;28;20198;-73
2022/12/06 08:24:27;;;;;;;4.57;4.17;;;2.60;99.90;;;;;;5088576;28;20206;-73
2022/12/06 08:26:55;;;;;;;4.50;4.10;;;2.60;99.90;;;;;;5088231;28;20229;-73
2022/12/06 08:29:22;;;;;;;4.03;3.73;;;2.60;99.90;;;;;;5088354;28;20298;-73
2022/12/06 08:31:49;;;;;;;4.33;3.93;;;2.60;99.90;;;;;;5088269;28;20808;-74
2022/12/06 08:34:16;;;;;;;4.63;4.17;;;2.60;99.90;;;;;;5088534;28;20317;-73
2022/12/06 08:36:45;;;;;;;4.17;3.80;;;2.50;99.90;;;;;;5088345;28;20310;-73
2022/12/06 08:39:12;;;;;;;4.13;3.80;;;2.50;99.90;;;;;;5087940;28;20293;-73
2022/12/06 08:41:56;;;;;;;4.40;4.00;;;2.50;99.90;;;;;;5088423;28;20264;-73
2022/12/06 08:44:25;;;;;;;4.63;3.93;;;2.60;99.90;;;;;;5087716;28;20207;-73
2022/12/06 08:46:52;;;;;;;4.50;4.00;;;2.60;99.90;;;;;;5087679;28;20208;-73
2022/12/06 08:49:20;;;;;;;5.33;4.40;;;2.60;99.90;;;;;;5088038;28;20210;-73
2022/12/06 08:51:48;;;;;;;4.43;4.03;;;2.60;99.90;;;;;;5087608;28;20753;-73
2022/12/06 08:54:18;;;;;;;4.90;4.50;;;2.60;99.90;;;;;;5087264;28;20317;-73
2022/12/06 08:56:45;;;;;;;4.70;3.70;;;2.60;99.90;;;;;;5087782;28;20209;-73
2022/12/06 08:59:13;;;;;;;5.07;4.23;;;2.60;99.90;;;;;;5087612;28;20203;-73
2022/12/06 09:01:40;;;;;;;4.27;3.97;;;2.60;99.90;;;;;;5087485;28;20270;-73
2022/12/06 09:04:10;;;;;;;4.20;3.83;;;2.60;99.90;;;;;;5087609;28;20314;-73
2022/12/06 09:06:38;;;;;;;4.20;3.80;;;2.60;99.90;;;;;;5085633;28;20211;-73
2022/12/06 09:09:08;;;;;;;4.67;4.10;;;2.70;99.90;;;;;;5066611;28;20207;-73
2022/12/06 09:11:35;;;;;;;4.27;3.97;;;2.70;99.90;;;;;;5066847;28;20253;-73
2022/12/06 09:14:02;;;;;;;4.77;4.30;;;2.70;99.90;;;;;;5067053;28;20263;-73
2022/12/06 09:16:29;;;;;;;4.47;4.07;;;2.70;99.90;;;;;;5067474;28;20215;-73
2022/12/06 09:18:57;;;;;;;4.40;4.00;;;2.60;99.90;;;;;;5078732;28;20513;-73
2022/12/06 09:21:27;;;;;;;4.10;3.80;;;2.60;99.90;;;;;;5087491;28;20814;-73
2022/12/06 09:23:55;;;;;;;4.63;4.23;;;2.60;99.90;;;;;;5087367;28;20332;-73
2022/12/06 09:26:24;;;;;;;4.23;3.93;;;2.60;99.90;;;;;;5087496;28;20658;-73
2022/12/06 09:28:53;;;;;;;5.07;4.57;;;2.70;99.90;;;;;;5087105;28;20238;-73
2022/12/06 09:31:20;;;;;;;4.17;3.80;;;2.60;99.90;;;;;;5087406;28;20234;-73
2022/12/06 09:33:48;;;;;;;4.53;3.73;;;2.60;99.90;;;;;;5087160;28;20207;-73
2022/12/06 09:36:21;;;;;;;4.03;3.70;;;2.60;99.90;;;;;;5087345;28;20237;-73
2022/12/06 09:38:51;;;;;;;4.40;4.00;;;2.60;99.90;;;;;;5087469;28;20199;-73
2022/12/06 09:41:35;;;;;;;4.63;4.23;;;2.60;99.90;;;;;;5087211;28;20215;-73
2022/12/06 09:44:21;;;;;;;4.30;3.90;;;2.60;99.90;;;;;;5087290;28;20273;-73
2022/12/06 09:46:58;;;;;;;4.43;4.03;;;2.60;99.90;;;;;;5086443;28;20285;-72
2022/12/06 09:49:31;;;;;;;6.07;4.40;;;2.70;99.90;;;;;;5067057;28;20628;-73
2022/12/06 09:52:19;;;;;;;4.77;4.27;;;2.70;99.90;;;;;;5067046;28;20318;-73
2022/12/06 09:54:58;;;;;;;5.00;4.33;;;2.80;99.90;;;;;;5066786;28;20318;-73
2022/12/06 09:57:34;;;;;;;4.93;4.43;;;2.80;99.90;;;;;;5066564;28;20192;-73
2022/12/06 10:00:06;;;;;;;5.67;4.97;;;2.70;99.90;;;;;;5066957;28;20226;-73
2022/12/06 10:02:56;;;;;;;5.77;4.77;;;2.70;99.90;;;;;;5067365;28;20301;-73
2022/12/06 10:05:32;;;;;;;4.93;4.30;;;2.80;99.90;;;;;;5067084;28;20227;-73
2022/12/06 10:08:09;;;;;;;3.93;3.63;;;2.80;99.90;;;;;;5066768;28;20630;-73
2022/12/06 10:10:50;;;;;;;4.60;4.20;;;2.70;99.90;;;;;;5066845;28;20195;-73
2022/12/06 10:13:27;;;;;;;4.43;4.03;;;2.70;99.90;;;;;;5066790;28;20290;-73
2022/12/06 10:16:07;;;;;;;4.53;4.13;;;2.70;99.90;;;;;;5084286;28;20214;-73
2022/12/06 10:18:49;;;;;;;4.57;4.13;;;2.70;99.90;;;;;;5086985;28;20304;-73
2022/12/06 10:21:22;;;;;;;4.47;4.07;;;2.70;99.90;;;;;;5086852;28;20246;-73
2022/12/06 10:24:02;;;;;;;4.20;3.80;;;2.70;99.90;;;;;;5089889;28;20199;-72
2022/12/06 10:26:39;;;;;;;4.73;4.33;;;2.70;99.90;;;;;;5090730;28;20226;-73
2022/12/06 10:29:16;;;;;;;4.43;4.03;;;2.70;99.90;;;;;;5090505;28;20273;-73
2022/12/06 10:31:55;;;;;;;5.27;3.97;;;2.70;99.90;;;;;;5090692;28;20212;-73
2022/12/06 10:34:27;;;;;;;4.60;4.20;;;2.60;99.90;;;;;;5090540;28;20257;-73
2022/12/06 10:37:03;;;;;;;5.33;4.47;;;2.70;99.90;;;;;;5089911;28;20685;-73
2022/12/06 10:39:39;;;;;;;5.33;4.80;;;2.70;99.90;;;;;;5089903;28;20664;-73
2022/12/06 10:42:13;;;;;;;4.73;4.33;;;2.80;99.90;;;;;;5090307;28;20614;-73
2022/12/06 10:44:46;;;;;;;5.87;4.67;;;2.80;99.90;;;;;;5090500;28;20229;-73
2022/12/06 10:47:16;;;;;;;6.17;5.47;;;2.80;99.90;;;;;;5085576;28;20653;-73
2022/12/06 10:49:52;;;;;;;6.23;4.90;;;2.80;99.90;;;;;;5072838;28;20206;-73
2022/12/06 10:52:34;;;;;;;7.00;5.37;;;2.80;99.90;;;;;;5090635;28;20273;-73
2022/12/06 10:55:14;;;;;;;5.60;5.10;;;2.80;99.90;;;;;;5089923;28;20254;-73
2022/12/06 10:57:46;;;;;;;6.47;5.83;;;2.80;99.90;;;;;;5090344;28;20285;-73
2022/12/06 11:00:17;;;;;;;5.83;5.10;;;2.80;99.90;;;;;;5089791;28;20234;-73
2022/12/06 11:02:53;;;;;;;7.27;5.57;;;2.80;99.90;;;;;;5089667;28;20705;-73
2022/12/06 11:05:26;;;;;;;6.47;5.77;;;2.80;99.90;;;;;;5089686;28;20202;-73
2022/12/06 11:07:59;;;;;;;5.93;5.13;;;2.80;99.90;;;;;;5089840;28;20211;-73
2022/12/06 11:10:29;;;;;;;6.30;5.50;;;2.80;99.90;;;;;;5089793;28;20620;-73
2022/12/06 11:13:00;;;;;;;5.83;5.10;;;2.80;99.90;;;;;;5089433;28;20293;-73
2022/12/06 11:15:34;;;;;;;6.83;5.23;;;2.80;99.90;;;;;;5089472;28;20769;-73
2022/12/06 11:18:05;;;;;;;7.00;5.97;;;2.90;99.90;;;;;;5089111;28;20285;-73
2022/12/06 11:20:38;;;;;;;5.70;5.10;;;2.80;99.90;;;;;;5089526;28;20248;-73
2022/12/06 11:23:12;;;;;;;5.53;4.93;;;2.80;99.90;;;;;;5089480;28;20278;-73
2022/12/06 11:25:54;;;;;;;6.10;5.10;;;2.80;99.90;;;;;;5088844;28;20325;-72
2022/12/06 11:28:34;;;;;;;6.43;5.73;;;2.80;99.90;;;;;;5089301;28;20285;-73
2022/12/06 11:31:17;;;;;;;5.57;5.07;;;2.90;99.90;;;;;;5089160;28;20190;-72
2022/12/06 11:33:45;;;;;;;5.37;4.87;;;2.90;99.90;;;;;;5088836;28;20199;-73
2022/12/06 11:36:12;;;;;;;5.30;4.80;;;2.90;99.90;;;;;;5088509;28;20237;-73
2022/12/06 11:38:44;;;;;;;5.00;4.60;;;2.90;99.90;;;;;;5089267;28;20658;-73
2022/12/06 11:41:18;;;;;;;4.73;4.33;;;2.90;99.90;;;;;;5088712;28;20197;-73
2022/12/06 11:43:45;;;;;;;4.57;4.10;;;2.90;99.90;;;;;;5089094;28;20206;-73
2022/12/06 11:46:14;;;;;;;4.37;4.00;;;2.90;99.90;;;;;;5088986;28;20659;-73
2022/12/06 11:48:42;;;;;;;4.43;4.13;;;2.90;99.90;;;;;;5088849;28;20297;-73
2022/12/06 11:51:17;;;;;;;4.60;4.23;;;2.90;99.90;;;;;;5089121;28;20198;-73
2022/12/06 11:53:53;;;;;;;4.20;3.90;;;2.90;99.90;;;;;;5088840;28;20635;-73
2022/12/06 11:56:23;;;;;;;4.27;3.97;;;2.90;99.90;;;;;;5088204;28;20310;-73
2022/12/06 11:59:12;;;;;;;3.90;3.60;;;2.90;99.90;;;;;;5088560;28;20293;-73
2022/12/06 12:01:44;;;;;;;4.00;3.70;;;2.90;99.90;;;;;;5083057;28;20277;-73
2022/12/06 12:04:25;;;;;;;4.03;3.73;;;2.90;99.90;;;;;;5088460;28;20724;-73
2022/12/06 12:06:58;;;;;;;3.70;3.00;;;3.00;99.90;;;;;;5088580;28;20268;-72
2022/12/06 12:09:28;;;;;;;3.67;3.37;;;3.00;99.90;;;;;;5088472;28;20266;-73
2022/12/06 12:12:00;;;;;;;3.30;3.10;;;3.00;99.90;;;;;;5088393;28;20286;-73
2022/12/06 12:14:37;;;;;;;3.10;2.90;;;3.00;99.90;;;;;;5088397;28;20234;-73
2022/12/06 12:17:15;;;;;;;4.33;3.00;;;3.00;99.90;;;;;;5088368;28;20193;-73
2022/12/06 12:19:49;;;;;;;2.90;2.70;;;2.90;99.90;;;;;;5088373;28;20462;-73
2022/12/06 12:22:28;;;;;;;2.70;2.50;;;2.90;99.90;;;;;;5088263;28;20213;-72
2022/12/06 12:24:56;;;;;;;3.40;3.20;;;2.90;99.90;;;;;;5087410;28;20928;-73
2022/12/06 12:27:41;;;;;;;3.30;3.10;;;2.90;99.90;;;;;;5088389;28;20572;-73
2022/12/06 12:30:31;;;;;;;2.83;2.67;;;2.90;99.90;;;;;;5087814;28;20294;-73
2022/12/06 12:33:17;;;;;;;3.00;2.80;;;2.90;99.90;;;;;;5087901;28;20198;-72
2022/12/06 12:35:47;;;;;;;3.00;2.80;;;3.00;99.90;;;;;;5087744;28;20218;-73
2022/12/06 12:38:20;;;;;;;2.70;2.60;;;2.90;99.90;;;;;;5088278;28;20340;-73
2022/12/06 12:40:49;;;;;;;2.70;2.50;;;2.90;99.90;;;;;;5088209;28;20200;-73
2022/12/06 12:43:20;;;;;;;2.90;2.70;;;3.00;99.90;;;;;;5087767;28;20700;-73
2022/12/06 12:46:07;;;;;;;2.80;2.60;;;3.00;99.90;;;;;;5087278;28;20202;-73
2022/12/06 12:48:36;;;;;;;2.60;2.50;;;3.00;99.90;;;;;;5087953;28;20191;-73
2022/12/06 12:51:06;;;;;;;2.60;2.47;;;2.90;99.90;;;;;;5087781;28;20225;-73
2022/12/06 12:53:37;;;;;;;2.93;2.73;;;2.90;99.90;;;;;;5088083;28;20294;-73
2022/12/06 12:56:10;;;;;;;3.27;2.93;;;2.80;99.90;;;;;;5087641;28;20643;-73
2022/12/06 12:58:37;;;;;;;2.57;2.47;;;2.90;99.90;;;;;;5087726;28;20238;-73
2022/12/06 13:01:13;;;;;;;2.93;2.63;;;2.90;99.90;;;;;;5087391;28;20685;-73
2022/12/06 13:03:42;;;;;;;2.90;2.70;;;2.90;99.90;;;;;;5087755;28;20194;-73
2022/12/06 13:06:26;;;;;;;2.87;2.67;;;2.90;99.90;;;;;;5087279;28;20202;-73
2022/12/06 13:08:54;;;;;;;3.00;2.87;;;2.90;99.90;;;;;;5087913;28;20234;-73
2022/12/06 13:11:21;;;;;;;3.03;2.83;;;2.90;99.90;;;;;;5087562;28;20206;-73
2022/12/06 13:13:51;;;;;;;2.80;2.60;;;2.90;99.90;;;;;;5087605;28;20210;-73
2022/12/06 13:16:23;;;;;;;2.87;2.67;;;2.90;99.90;;;;;;5087662;28;20592;-73
2022/12/06 13:18:54;;;;;;;3.57;3.30;;;2.90;99.90;;;;;;5087605;28;20405;-73
2022/12/06 13:21:24;;;;;;;3.20;2.97;;;2.90;99.90;;;;;;5087307;28;20293;-73
2022/12/06 13:23:56;;;;;;;3.20;3.00;;;2.90;99.90;;;;;;5087287;28;20706;-73
2022/12/06 13:26:28;;;;;;;3.00;2.80;;;2.90;99.90;;;;;;5087232;28;20260;-73
2022/12/06 13:28:59;;;;;;;2.97;2.67;;;2.90;99.90;;;;;;5087311;28;20561;-73
2022/12/06 13:31:32;;;;;;;3.13;2.93;;;2.90;99.90;;;;;;5087215;28;20667;-73